Time;durP1;ratioP1;P1;durP2;ratioP2;P2;SDS_P1;SDS_P2;PMS_P1;PMS_P2;Temp;Humidity;BMP_temperature;BMP_pressure;BME280_temperature;BME280_humidity;BME280_pressure;Samples;Min_cycle;Max_cycle;Signal;HPM_P1;HPM_P2
2022/11/06 00:08:37;;;;;;;2.88;1.63;;;17.00;54.00;;;;;;20684147;28;1086250;-73
2022/11/06 00:18:38;;;;;;;2.50;1.63;;;17.00;54.10;;;;;;20725279;28;20044;-73
2022/11/06 00:28:39;;;;;;;1.95;1.20;;;17.00;54.20;;;;;;20730581;28;20041;-71
2022/11/06 00:38:40;;;;;;;2.47;1.35;;;17.00;54.20;;;;;;20710394;28;20125;-71
2022/11/06 00:48:41;;;;;;;2.50;1.40;;;17.00;54.20;;;;;;20720040;28;20133;-72
2022/11/06 00:58:41;;;;;;;2.60;1.20;;;16.90;54.20;;;;;;20729852;28;20033;-72
2022/11/06 01:08:42;;;;;;;2.00;1.20;;;16.90;54.20;;;;;;20737442;28;20176;-71
2022/11/06 01:18:43;;;;;;;2.03;1.33;;;17.00;54.30;;;;;;20739490;28;20182;-71
2022/11/06 01:28:44;;;;;;;4.18;1.92;;;16.90;54.30;;;;;;20694266;28;20476;-70
2022/11/06 01:38:47;;;;;;;2.85;1.50;;;16.90;54.30;;;;;;20720816;28;20030;-70
2022/11/06 01:49:12;;;;;;;1.35;1.00;;;16.80;54.30;;;;;;20706082;28;20443;-70
2022/11/06 01:59:14;;;;;;;3.03;1.40;;;16.90;54.40;;;;;;20731104;28;20045;-71
2022/11/06 02:09:15;;;;;;;2.83;1.45;;;16.80;54.40;;;;;;21057581;23;20081;-70
2022/11/06 02:19:19;;;;;;;3.53;1.30;;;16.80;54.40;;;;;;20681480;28;20069;-71
2022/11/06 02:29:21;;;;;;;2.08;1.20;;;16.80;54.50;;;;;;20711790;28;20034;-69
2022/11/06 02:39:22;;;;;;;2.65;1.10;;;16.80;54.50;;;;;;20661219;28;20062;-70
2022/11/06 02:49:29;;;;;;;2.25;1.17;;;16.80;54.50;;;;;;20672951;28;20416;-70
2022/11/06 02:59:46;;;;;;;1.70;1.15;;;16.80;54.60;;;;;;20704613;28;20069;-70
2022/11/06 03:09:47;;;;;;;2.28;1.08;;;16.80;54.60;;;;;;20674683;28;20040;-70
2022/11/06 03:19:53;;;;;;;2.65;1.38;;;16.70;54.70;;;;;;20680764;28;20366;-71
2022/11/06 03:30:08;;;;;;;2.90;1.05;;;16.70;54.70;;;;;;20670427;28;20385;-71
2022/11/06 03:40:10;;;;;;;2.65;0.95;;;16.70;54.80;;;;;;20687836;28;20049;-71
2022/11/06 03:50:30;;;;;;;2.30;1.05;;;16.70;54.80;;;;;;20685437;28;20120;-71
2022/11/06 04:00:31;;;;;;;0.70;0.63;;;16.60;54.80;;;;;;20675870;28;20045;-69
2022/11/06 04:31:45;;;;;;;1.80;0.90;;;16.60;54.90;;;;;;20659411;28;20099;-70
2022/11/06 04:41:50;;;;;;;1.52;1.00;;;16.60;54.90;;;;;;20711071;28;20049;-70
2022/11/06 04:51:51;;;;;;;2.27;1.10;;;16.60;55.00;;;;;;20649879;28;20129;-70
2022/11/06 05:01:51;;;;;;;1.08;0.82;;;16.60;55.00;;;;;;20657225;28;20125;-71
2022/11/06 05:11:52;;;;;;;1.48;1.02;;;16.50;55.00;;;;;;20655493;28;20038;-70
2022/11/06 05:32:12;;;;;;;1.10;0.57;;;16.50;55.00;;;;;;20674794;28;20372;-71
2022/11/06 05:42:12;;;;;;;1.33;0.90;;;16.50;55.70;;;;;;20707063;28;20037;-70
2022/11/06 05:52:13;;;;;;;2.17;0.80;;;16.50;55.10;;;;;;20661728;28;20042;-71
2022/11/06 06:02:14;;;;;;;1.08;0.80;;;16.40;55.00;;;;;;20691651;28;20745;-70
2022/11/06 06:12:14;;;;;;;1.50;0.85;;;16.50;55.10;;;;;;20678280;28;20056;-70
2022/11/06 06:22:15;;;;;;;3.90;1.27;;;16.50;55.20;;;;;;20677418;28;20057;-69
2022/11/06 06:32:15;;;;;;;1.58;1.00;;;16.40;55.10;;;;;;20703429;28;20082;-69
2022/11/06 06:42:16;;;;;;;1.50;0.82;;;16.40;55.20;;;;;;20701252;28;20113;-69
2022/11/06 06:52:16;;;;;;;2.47;0.90;;;16.40;55.20;;;;;;20688477;28;20125;-70
2022/11/06 07:02:17;;;;;;;2.15;0.98;;;16.40;55.20;;;;;;20686880;28;20505;-70
2022/11/06 07:12:18;;;;;;;1.90;1.00;;;16.40;55.20;;;;;;20674672;28;20053;-69
2022/11/06 07:22:19;;;;;;;1.45;0.93;;;16.30;55.20;;;;;;20680708;28;20168;-69
2022/11/06 07:32:19;;;;;;;4.18;1.30;;;16.30;55.30;;;;;;20732886;28;20038;-69
2022/11/06 07:42:20;;;;;;;3.10;0.90;;;16.30;55.30;;;;;;20651058;28;20136;-69
2022/11/06 07:52:34;;;;;;;2.00;0.93;;;16.30;55.60;;;;;;20654275;28;20339;-69
2022/11/06 08:02:35;;;;;;;1.30;0.90;;;16.30;55.40;;;;;;20680182;28;20484;-69
2022/11/06 08:12:36;;;;;;;2.67;0.85;;;16.30;55.50;;;;;;20663462;28;20292;-70
2022/11/06 08:22:36;;;;;;;1.58;0.80;;;16.20;55.60;;;;;;20674986;28;20046;-70
2022/11/06 08:32:37;;;;;;;2.22;1.10;;;16.20;55.80;;;;;;20679177;28;20041;-69
2022/11/06 08:42:37;;;;;;;2.70;1.00;;;16.10;55.80;;;;;;20659735;28;20472;-70
2022/11/06 08:52:38;;;;;;;1.85;1.10;;;16.20;55.80;;;;;;20675833;28;20033;-69
2022/11/06 09:02:38;;;;;;;1.58;0.73;;;16.10;55.80;;;;;;20670760;28;20046;-70
2022/11/06 09:12:40;;;;;;;1.10;0.67;;;16.20;55.90;;;;;;20658034;28;20404;-70
2022/11/06 09:22:41;;;;;;;1.27;1.00;;;16.20;55.90;;;;;;20684114;28;20655;-70
2022/11/06 09:32:52;;;;;;;1.07;0.90;;;16.20;55.90;;;;;;20700305;28;20035;-71
2022/11/06 09:43:20;;;;;;;1.98;0.70;;;16.30;55.80;;;;;;20663779;28;20344;-70
2022/11/06 09:53:32;;;;;;;3.83;0.90;;;16.30;55.60;;;;;;20726347;28;20490;-70
2022/11/06 10:03:43;;;;;;;1.10;0.85;;;16.40;55.50;;;;;;20688624;28;20034;-70
2022/11/06 10:14:08;;;;;;;1.25;0.90;;;16.60;55.20;;;;;;20688288;28;20172;-69
2022/11/06 10:24:18;;;;;;;1.92;0.77;;;16.70;54.80;;;;;;20723881;28;20033;-69
2022/11/06 10:34:24;;;;;;;2.25;0.80;;;16.90;54.50;;;;;;20673688;28;20377;-69
2022/11/06 10:44:28;;;;;;;0.87;0.57;;;16.90;54.20;;;;;;20666535;28;20395;-69
2022/11/06 10:54:57;;;;;;;1.42;0.80;;;17.00;54.00;;;;;;20683584;28;20280;-69
2022/11/06 11:04:58;;;;;;;1.45;0.80;;;17.10;53.70;;;;;;20675623;28;20511;-69
2022/11/06 11:15:04;;;;;;;0.98;0.77;;;17.20;53.50;;;;;;20710481;28;20084;-72
2022/11/06 11:25:23;;;;;;;6.57;1.17;;;17.30;53.30;;;;;;20670947;28;20596;-72
2022/11/06 11:35:28;;;;;;;6.30;1.45;;;17.40;53.10;;;;;;20714237;28;20424;-74
2022/11/06 11:45:28;;;;;;;1.77;0.90;;;17.60;52.60;;;;;;20684857;28;20038;-73
2022/11/06 11:55:29;;;;;;;3.17;1.10;;;17.80;52.20;;;;;;20683147;28;20445;-74
2022/11/06 12:05:33;;;;;;;2.83;0.98;;;17.90;51.90;;;;;;20689465;28;20042;-72
2022/11/06 12:15:56;;;;;;;1.02;0.55;;;18.00;51.60;;;;;;20680842;28;20044;-74
2022/11/06 12:26:35;;;;;;;2.10;0.68;;;18.10;51.40;;;;;;20648781;28;20030;-72
2022/11/06 12:36:38;;;;;;;1.48;0.75;;;18.20;51.20;;;;;;20707433;28;20045;-73
2022/11/06 12:47:03;;;;;;;1.85;0.80;;;18.30;51.00;;;;;;20670388;28;20401;-73
2022/11/06 12:57:09;;;;;;;2.53;0.90;;;18.30;50.90;;;;;;20666255;28;20042;-73
2022/11/06 13:07:58;;;;;;;2.47;0.90;;;18.40;50.80;;;;;;20688845;28;20033;-73
2022/11/06 13:18:19;;;;;;;2.17;0.93;;;18.40;50.70;;;;;;20661320;28;20695;-75
2022/11/06 13:28:44;;;;;;;1.75;0.77;;;18.40;50.40;;;;;;20658784;28;20030;-74
2022/11/06 13:38:54;;;;;;;1.30;0.60;;;18.40;50.30;;;;;;20663122;28;20038;-77
2022/11/06 13:49:03;;;;;;;2.22;0.60;;;18.50;50.40;;;;;;20656554;28;20499;-76
2022/11/06 13:59:17;;;;;;;2.70;0.60;;;18.50;50.40;;;;;;20687319;28;20404;-77
2022/11/06 14:09:21;;;;;;;0.75;0.45;;;18.50;50.40;;;;;;20679972;28;20042;-77
2022/11/06 14:19:23;;;;;;;1.67;0.80;;;18.40;50.40;;;;;;20697798;28;20054;-78
2022/11/06 14:29:30;;;;;;;1.73;0.70;;;18.40;50.60;;;;;;20693142;28;20081;-77
2022/11/06 14:39:51;;;;;;;5.53;0.75;;;18.40;50.70;;;;;;20684164;28;20042;-80
2022/11/06 14:49:53;;;;;;;0.85;0.50;;;18.40;50.70;;;;;;20697184;28;20045;-77
2022/11/06 14:59:55;;;;;;;0.95;0.55;;;18.30;50.70;;;;;;20700143;28;20038;-77
2022/11/06 15:09:57;;;;;;;1.40;0.70;;;18.40;50.90;;;;;;20674237;28;20149;-77
2022/11/06 15:20:05;;;;;;;1.92;0.80;;;18.40;50.90;;;;;;20692838;28;20124;-76
2022/11/06 15:30:08;;;;;;;1.42;0.43;;;18.40;51.00;;;;;;20677015;28;20395;-73
2022/11/06 15:40:31;;;;;;;1.40;0.70;;;18.30;50.90;;;;;;20697011;28;20124;-74
2022/11/06 15:50:33;;;;;;;1.05;0.77;;;18.30;51.00;;;;;;20696467;28;20045;-75
2022/11/06 16:00:35;;;;;;;1.90;0.73;;;18.30;50.90;;;;;;20687299;28;20042;-75
2022/11/06 16:10:37;;;;;;;4.95;1.10;;;18.30;50.80;;;;;;20673354;28;20103;-76
2022/11/06 16:20:37;;;;;;;4.45;0.90;;;18.30;50.90;;;;;;20691384;28;20036;-75
2022/11/06 16:30:38;;;;;;;2.17;1.03;;;18.20;51.00;;;;;;20681660;28;20464;-75
2022/11/06 16:40:55;;;;;;;1.70;1.17;;;18.20;51.10;;;;;;20648254;28;20359;-75
2022/11/06 16:50:58;;;;;;;2.53;1.10;;;18.10;51.20;;;;;;20691971;28;20034;-75
2022/11/06 17:01:03;;;;;;;1.85;0.95;;;18.10;51.40;;;;;;20681916;28;20062;-76
2022/11/06 17:11:20;;;;;;;6.97;1.20;;;18.00;51.40;;;;;;20688120;28;20541;-76
2022/11/06 17:21:24;;;;;;;;;;;18.00;51.50;;;;;;20682374;28;20046;-75
2022/11/06 17:31:25;;;;;;;2.28;0.88;;;18.00;51.50;;;;;;20683027;28;19917;-77
2022/11/06 17:41:29;;;;;;;2.08;0.90;;;18.00;51.50;;;;;;20673202;28;20061;-76
2022/11/06 18:01:49;;;;;;;1.38;0.60;;;17.90;51.60;;;;;;20687321;28;20119;-75
2022/11/06 18:11:51;;;;;;;1.27;0.63;;;17.90;51.60;;;;;;20695708;28;20140;-77
2022/11/06 18:21:53;;;;;;;1.00;0.63;;;17.90;51.70;;;;;;20683113;28;20038;-77
2022/11/06 18:31:53;;;;;;;0.95;0.80;;;17.80;51.70;;;;;;20672505;28;20104;-77
2022/11/06 18:41:57;;;;;;;1.50;0.57;;;17.80;51.80;;;;;;20700389;28;20037;-76
2022/11/06 18:51:59;;;;;;;1.67;0.93;;;17.70;51.90;;;;;;20688060;28;20045;-75
2022/11/06 19:02:00;;;;;;;0.75;0.52;;;17.70;52.00;;;;;;20690944;28;20153;-75
2022/11/06 19:12:01;;;;;;;1.05;0.57;;;17.70;52.60;;;;;;20669595;28;20037;-75
2022/11/06 19:22:03;;;;;;;1.35;0.80;;;17.60;52.00;;;;;;20695057;28;20026;-76
2022/11/06 19:32:04;;;;;;;1.80;0.90;;;17.60;52.10;;;;;;20696150;28;20041;-74
2022/11/06 19:42:04;;;;;;;0.83;0.60;;;17.60;52.10;;;;;;20675821;28;20035;-75
2022/11/06 19:52:05;;;;;;;1.60;0.77;;;17.60;52.20;;;;;;20689518;28;20290;-75
2022/11/06 20:02:06;;;;;;;1.05;0.50;;;17.50;52.20;;;;;;20681548;28;20053;-75
2022/11/06 20:12:07;;;;;;;1.67;0.68;;;17.50;52.30;;;;;;20688095;28;20030;-75
2022/11/06 20:22:08;;;;;;;1.27;0.70;;;17.50;52.30;;;;;;20664922;28;20034;-75
2022/11/06 20:32:08;;;;;;;2.00;1.08;;;17.50;52.40;;;;;;20680987;28;20034;-76
2022/11/06 20:42:09;;;;;;;1.90;0.80;;;17.50;52.50;;;;;;20677724;28;20038;-75
2022/11/06 20:52:11;;;;;;;1.13;0.65;;;17.50;52.50;;;;;;20693610;28;20364;-75
2022/11/06 21:02:11;;;;;;;2.40;1.00;;;17.40;52.60;;;;;;20666849;28;20125;-75
2022/11/06 21:12:12;;;;;;;3.10;0.95;;;17.40;52.60;;;;;;20701312;28;20034;-75
2022/11/06 21:22:12;;;;;;;1.90;0.77;;;17.40;52.70;;;;;;20708566;28;20038;-75
2022/11/06 21:32:13;;;;;;;1.73;0.90;;;17.40;52.90;;;;;;20712141;28;20280;-76
2022/11/06 21:42:14;;;;;;;2.03;0.90;;;17.40;53.00;;;;;;20692010;28;20048;-75
2022/11/06 22:02:35;;;;;;;1.20;0.80;;;17.30;53.10;;;;;;20718064;28;20041;-75
2022/11/06 22:12:36;;;;;;;1.02;0.70;;;17.20;53.10;;;;;;20698697;28;20036;-74
2022/11/06 22:22:36;;;;;;;1.40;0.73;;;17.20;53.20;;;;;;20683150;28;20038;-76
2022/11/06 22:32:37;;;;;;;0.83;0.60;;;17.20;53.30;;;;;;20678167;28;20034;-75
2022/11/06 22:42:38;;;;;;;0.95;0.70;;;17.30;53.40;;;;;;20704798;28;20854;-75
2022/11/06 22:52:38;;;;;;;1.10;0.60;;;17.20;53.40;;;;;;20714176;28;20034;-75
2022/11/06 23:02:39;;;;;;;2.13;0.80;;;17.20;53.50;;;;;;20724696;28;20038;-76
2022/11/06 23:12:39;;;;;;;0.80;0.80;;;17.10;53.50;;;;;;20696052;28;20038;-75
2022/11/06 23:22:40;;;;;;;1.65;0.80;;;17.10;53.60;;;;;;20693844;28;20038;-76
2022/11/06 23:32:41;;;;;;;1.07;0.50;;;17.10;53.60;;;;;;20688907;28;20088;-75
2022/11/06 23:42:42;;;;;;;1.80;1.10;;;17.10;53.70;;;;;;20696824;28;20813;-75
2022/11/06 23:52:43;;;;;;;1.75;0.95;;;17.10;53.70;;;;;;20682212;28;20357;-75
